Wardeh — ODUS — position and weather

sailwx.info

Track history (hours):
 
Tides and Currents Weather Stations Pressure Air Temp Water Temp Dewpoint Dewpoint Depression Visibility Wind Speed Wind Dir Waves Ship Positions

Wardeh

Last reported at 2015-May-23 00:33 UTC. Time now 2015-May-30 22:39 UTC.
Position N 35°52' E 027°31'.

; draft 7.2 m.

Type: Cargo ship. MMSI: 450522000.

Date/timePositionNaut miles runAvg speedWind from/ knotsBaromVisibWave heightAir tempDewpointWater temp
2015-May-23 00:33N 35°52' E 027°31'1514.0
2015-May-22 23:28N 35°57' E 027°13'1314.5
2015-May-22 22:33N 35°57' E 026°57'1414.0
2015-May-22 21:33N 35°57' E 026°39'1414.2
2015-May-22 20:34N 35°58' E 026°22'1414.0
2015-May-22 19:33N 35°58' E 026°05'1413.4
2015-May-22 18:32N 35°59' E 025°48'1413.5
2015-May-22 17:32N 35°59' E 025°31'1313.3
2015-May-22 16:33N 35°60' E 025°15'1413.7
2015-May-22 15:33N 35°60' E 024°58'1414.3
2015-May-22 14:33N 36°00' E 024°40'1414.5
2015-May-22 13:33N 36°01' E 024°23'1414.1
2015-May-22 12:33N 36°02' E 024°05'37313.8
2015-May-21 09:30N 36°29' E 016°23'1513.9
2015-May-21 08:27N 36°30' E 016°05'1213.8
2015-May-21 07:33N 36°32' E 015°50'1413.8
2015-May-21 06:33N 36°33' E 015°32'1413.7
2015-May-21 05:33N 36°34' E 015°16'1413.6
2015-May-21 04:30N 36°36' E 014°58'1513.8
2015-May-21 03:26N 36°39' E 014°40'1314.3
2015-May-21 02:33N 36°42' E 014°25'1413.8
2015-May-21 01:33N 36°45' E 014°08'1413.7
2015-May-21 00:33N 36°48' E 013°51'1414.3
2015-May-20 23:33N 36°52' E 013°34'1414.3
2015-May-20 22:33N 36°55' E 013°17'1414.3
2015-May-20 21:33N 36°58' E 012°59'1414.4
2015-May-20 20:33N 37°01' E 012°41'1514.6
2015-May-20 19:33N 37°05' E 012°24'2913.9
2015-May-20 17:29N 37°11' E 011°49'1314.0
2015-May-20 16:33N 37°15' E 011°33'1414.0
2015-May-20 15:33N 37°19' E 011°16'44813.8
2015-May-19 07:07N 36°52' E 001°55'1413.9
2015-May-19 06:06N 36°50' E 001°37'2314.5
2015-May-19 04:32N 36°47' E 001°09'1414.6
2015-May-19 03:33N 36°45' E 000°52'1414.4
2015-May-19 02:33N 36°43' E 000°34'1515.1
2015-May-19 01:33N 36°40' E 000°15'4314.4
2015-May-18 22:33N 36°33' W 000°38'1413.5
2015-May-18 21:33N 36°30' W 000°54'6512.9
2015-May-18 16:31N 36°19' W 002°14'2913.3
2015-May-18 14:20N 36°14' W 002°49'12213.9
2015-May-18 05:34N 35°58' W 005°19'2015.2
2015-May-18 04:13N 35°53' W 005°43'  
2015-May-15 15:33N 26°21' W 015°28'  
Track history (hours):
 
Tides and Currents Weather Stations Pressure Air Temp Water Temp Dewpoint Dewpoint Depression Visibility Wind Speed Wind Dir Waves Ship Positions

Wardeh

Last reported at 2015-May-23 00:33 UTC. Time now 2015-May-30 22:39 UTC.
Position N 35°52' E 027°31'.

; draft 7.2 m.

Type: Cargo ship. MMSI: 450522000.

Date/timePositionNaut miles runAvg speedWind from/ knotsBaromVisibWave heightAir tempDewpointWater temp
2015-May-23 00:33N 35°52' E 027°31'1514.0
2015-May-22 23:28N 35°57' E 027°13'1314.5
2015-May-22 22:33N 35°57' E 026°57'1414.0
2015-May-22 21:33N 35°57' E 026°39'1414.2
2015-May-22 20:34N 35°58' E 026°22'1414.0
2015-May-22 19:33N 35°58' E 026°05'1413.4
2015-May-22 18:32N 35°59' E 025°48'1413.5
2015-May-22 17:32N 35°59' E 025°31'1313.3
2015-May-22 16:33N 35°60' E 025°15'1413.7
2015-May-22 15:33N 35°60' E 024°58'1414.3
2015-May-22 14:33N 36°00' E 024°40'1414.5
2015-May-22 13:33N 36°01' E 024°23'1414.1
2015-May-22 12:33N 36°02' E 024°05'37313.8
2015-May-21 09:30N 36°29' E 016°23'1513.9
2015-May-21 08:27N 36°30' E 016°05'1213.8
2015-May-21 07:33N 36°32' E 015°50'1413.8
2015-May-21 06:33N 36°33' E 015°32'1413.7
2015-May-21 05:33N 36°34' E 015°16'1413.6
2015-May-21 04:30N 36°36' E 014°58'1513.8
2015-May-21 03:26N 36°39' E 014°40'1314.3
2015-May-21 02:33N 36°42' E 014°25'1413.8
2015-May-21 01:33N 36°45' E 014°08'1413.7
2015-May-21 00:33N 36°48' E 013°51'1414.3
2015-May-20 23:33N 36°52' E 013°34'1414.3
2015-May-20 22:33N 36°55' E 013°17'1414.3
2015-May-20 21:33N 36°58' E 012°59'1414.4
2015-May-20 20:33N 37°01' E 012°41'1514.6
2015-May-20 19:33N 37°05' E 012°24'2913.9
2015-May-20 17:29N 37°11' E 011°49'1314.0
2015-May-20 16:33N 37°15' E 011°33'1414.0
2015-May-20 15:33N 37°19' E 011°16'44813.8
2015-May-19 07:07N 36°52' E 001°55'1413.9
2015-May-19 06:06N 36°50' E 001°37'2314.5
2015-May-19 04:32N 36°47' E 001°09'1414.6
2015-May-19 03:33N 36°45' E 000°52'1414.4
2015-May-19 02:33N 36°43' E 000°34'1515.1
2015-May-19 01:33N 36°40' E 000°15'4314.4
2015-May-18 22:33N 36°33' W 000°38'1413.5
2015-May-18 21:33N 36°30' W 000°54'6512.9
2015-May-18 16:31N 36°19' W 002°14'2913.3
2015-May-18 14:20N 36°14' W 002°49'12213.9
2015-May-18 05:34N 35°58' W 005°19'2015.2
2015-May-18 04:13N 35°53' W 005°43'  
2015-May-15 15:33N 26°21' W 015°28'  

Dump ship's entire track history